sensor_id;sensor_type;location;lat;lon;timestamp;pressure;altitude;pressure_sealevel;temperature;humidity
11672;BME280;5892;43.412;24.612;2023-08-08T00:00:34;99803.91;;;18.30;100.00
11672;BME280;5892;43.412;24.612;2023-08-08T00:03:01;99794.19;;;18.16;100.00
11672;BME280;5892;43.412;24.612;2023-08-08T00:05:28;99789.53;;;18.20;100.00
11672;BME280;5892;43.412;24.612;2023-08-08T00:07:56;99761.34;;;18.18;100.00
11672;BME280;5892;43.412;24.612;2023-08-08T00:10:23;99769.63;;;18.15;100.00
11672;BME280;5892;43.412;24.612;2023-08-08T00:12:49;99783.34;;;18.31;100.00
11672;BME280;5892;43.412;24.612;2023-08-08T00:15:16;99782.47;;;18.27;100.00
11672;BME280;5892;43.412;24.612;2023-08-08T00:17:43;99767.19;;;17.84;100.00
11672;BME280;5892;43.412;24.612;2023-08-08T00:20:10;99819.59;;;18.18;100.00
11672;BME280;5892;43.412;24.612;2023-08-08T00:22:37;99841.78;;;18.18;100.00
11672;BME280;5892;43.412;24.612;2023-08-08T00:25:06;99838.66;;;18.20;100.00
11672;BME280;5892;43.412;24.612;2023-08-08T00:27:34;99844.72;;;18.29;100.00
11672;BME280;5892;43.412;24.612;2023-08-08T00:30:01;99849.75;;;18.20;100.00
11672;BME280;5892;43.412;24.612;2023-08-08T00:32:27;99846.53;;;17.95;100.00
11672;BME280;5892;43.412;24.612;2023-08-08T00:34:54;99854.13;;;17.98;100.00
11672;BME280;5892;43.412;24.612;2023-08-08T00:37:21;99872.06;;;18.04;100.00
11672;BME280;5892;43.412;24.612;2023-08-08T00:39:48;99848.09;;;17.93;100.00
11672;BME280;5892;43.412;24.612;2023-08-08T00:42:16;99864.78;;;17.96;100.00
11672;BME280;5892;43.412;24.612;2023-08-08T00:44:44;99863.97;;;17.96;100.00
11672;BME280;5892;43.412;24.612;2023-08-08T00:47:11;99865.94;;;17.95;100.00
11672;BME280;5892;43.412;24.612;2023-08-08T00:49:38;99872.28;;;17.96;100.00
11672;BME280;5892;43.412;24.612;2023-08-08T00:52:06;99876.25;;;17.95;100.00
11672;BME280;5892;43.412;24.612;2023-08-08T00:54:34;99873.72;;;17.86;100.00
11672;BME280;5892;43.412;24.612;2023-08-08T00:57:01;99868.91;;;18.06;100.00
11672;BME280;5892;43.412;24.612;2023-08-08T00:59:29;99893.31;;;17.97;100.00
11672;BME280;5892;43.412;24.612;2023-08-08T01:01:57;99863.44;;;17.87;100.00
11672;BME280;5892;43.412;24.612;2023-08-08T01:04:25;99881.41;;;17.96;100.00
11672;BME280;5892;43.412;24.612;2023-08-08T01:06:59;99878.16;;;17.91;100.00
11672;BME280;5892;43.412;24.612;2023-08-08T01:09:36;99876.97;;;17.92;100.00
11672;BME280;5892;43.412;24.612;2023-08-08T01:12:06;99873.03;;;17.93;100.00
11672;BME280;5892;43.412;24.612;2023-08-08T01:14:37;99870.72;;;17.95;100.00
11672;BME280;5892;43.412;24.612;2023-08-08T01:17:05;99864.69;;;17.89;100.00
11672;BME280;5892;43.412;24.612;2023-08-08T01:19:33;99866.56;;;17.85;100.00
11672;BME280;5892;43.412;24.612;2023-08-08T01:22:02;99850.69;;;17.82;100.00
11672;BME280;5892;43.412;24.612;2023-08-08T01:24:32;99855.75;;;17.76;100.00
11672;BME280;5892;43.412;24.612;2023-08-08T01:27:03;99848.22;;;17.77;100.00
11672;BME280;5892;43.412;24.612;2023-08-08T01:29:30;99840.66;;;17.74;100.00
11672;BME280;5892;43.412;24.612;2023-08-08T01:31:57;99827.13;;;17.69;100.00
11672;BME280;5892;43.412;24.612;2023-08-08T01:34:24;99829.94;;;17.72;100.00
11672;BME280;5892;43.412;24.612;2023-08-08T01:36:56;99840.22;;;17.72;100.00
11672;BME280;5892;43.412;24.612;2023-08-08T01:39:26;99855.25;;;17.71;100.00
11672;BME280;5892;43.412;24.612;2023-08-08T01:41:56;99848.91;;;17.70;100.00
11672;BME280;5892;43.412;24.612;2023-08-08T01:44:25;99830.03;;;17.57;100.00
11672;BME280;5892;43.412;24.612;2023-08-08T01:46:54;99837.47;;;17.53;100.00
11672;BME280;5892;43.412;24.612;2023-08-08T01:49:20;99825.66;;;17.56;100.00
11672;BME280;5892;43.412;24.612;2023-08-08T01:51:47;99840.22;;;17.72;100.00
11672;BME280;5892;43.412;24.612;2023-08-08T01:54:16;99847.28;;;17.69;100.00
11672;BME280;5892;43.412;24.612;2023-08-08T01:56:43;99846.66;;;17.57;100.00
11672;BME280;5892;43.412;24.612;2023-08-08T01:59:13;99846.22;;;17.74;100.00
11672;BME280;5892;43.412;24.612;2023-08-08T02:01:40;99840.34;;;17.79;100.00
11672;BME280;5892;43.412;24.612;2023-08-08T02:04:07;99842.19;;;17.71;100.00
11672;BME280;5892;43.412;24.612;2023-08-08T02:06:34;99847.69;;;17.68;100.00
11672;BME280;5892;43.412;24.612;2023-08-08T02:09:01;99839.94;;;17.58;100.00
11672;BME280;5892;43.412;24.612;2023-08-08T02:11:29;99795.97;;;17.33;100.00
11672;BME280;5892;43.412;24.612;2023-08-08T02:13:56;99843.59;;;17.62;100.00
11672;BME280;5892;43.412;24.612;2023-08-08T02:16:24;99855.84;;;17.61;100.00
11672;BME280;5892;43.412;24.612;2023-08-08T02:18:52;99867.28;;;17.59;100.00
11672;BME280;5892;43.412;24.612;2023-08-08T02:21:18;99864.88;;;17.58;100.00
11672;BME280;5892;43.412;24.612;2023-08-08T02:23:45;99868.47;;;17.58;100.00
11672;BME280;5892;43.412;24.612;2023-08-08T02:26:12;99874.78;;;17.78;100.00
11672;BME280;5892;43.412;24.612;2023-08-08T02:28:39;99868.44;;;17.77;100.00
11672;BME280;5892;43.412;24.612;2023-08-08T02:31:06;99882.81;;;17.64;100.00
11672;BME280;5892;43.412;24.612;2023-08-08T02:33:34;99881.22;;;17.63;100.00
11672;BME280;5892;43.412;24.612;2023-08-08T02:36:01;99893.03;;;17.60;100.00
11672;BME280;5892;43.412;24.612;2023-08-08T02:38:28;99889.81;;;17.58;100.00
11672;BME280;5892;43.412;24.612;2023-08-08T02:40:55;99884.72;;;17.60;100.00
11672;BME280;5892;43.412;24.612;2023-08-08T02:43:22;99882.22;;;17.55;100.00
11672;BME280;5892;43.412;24.612;2023-08-08T02:45:49;99880.50;;;17.47;100.00
11672;BME280;5892;43.412;24.612;2023-08-08T02:48:16;99881.06;;;17.56;100.00
11672;BME280;5892;43.412;24.612;2023-08-08T02:50:46;99888.06;;;17.50;100.00
11672;BME280;5892;43.412;24.612;2023-08-08T02:53:13;99884.28;;;17.58;100.00
11672;BME280;5892;43.412;24.612;2023-08-08T02:55:39;99907.34;;;17.62;100.00
11672;BME280;5892;43.412;24.612;2023-08-08T02:58:07;99897.47;;;17.45;100.00
11672;BME280;5892;43.412;24.612;2023-08-08T03:00:34;99911.03;;;17.50;100.00
11672;BME280;5892;43.412;24.612;2023-08-08T03:03:03;99928.50;;;17.54;100.00
11672;BME280;5892;43.412;24.612;2023-08-08T03:05:29;99930.94;;;17.56;100.00
11672;BME280;5892;43.412;24.612;2023-08-08T03:07:58;99921.41;;;17.53;100.00
11672;BME280;5892;43.412;24.612;2023-08-08T03:10:25;99932.69;;;17.64;100.00
11672;BME280;5892;43.412;24.612;2023-08-08T03:12:52;99938.88;;;17.57;100.00
11672;BME280;5892;43.412;24.612;2023-08-08T03:15:19;99939.09;;;17.49;100.00
11672;BME280;5892;43.412;24.612;2023-08-08T03:17:46;99922.47;;;17.49;100.00
11672;BME280;5892;43.412;24.612;2023-08-08T03:20:12;99782.66;;;16.59;100.00
11672;BME280;5892;43.412;24.612;2023-08-08T03:22:39;99923.97;;;17.43;100.00
11672;BME280;5892;43.412;24.612;2023-08-08T03:25:08;99932.38;;;17.50;100.00
11672;BME280;5892;43.412;24.612;2023-08-08T03:27:35;99933.34;;;17.57;100.00
11672;BME280;5892;43.412;24.612;2023-08-08T03:30:04;99946.13;;;17.62;100.00
11672;BME280;5892;43.412;24.612;2023-08-08T03:32:32;99944.22;;;17.66;100.00
11672;BME280;5892;43.412;24.612;2023-08-08T03:34:59;99916.81;;;17.42;100.00
11672;BME280;5892;43.412;24.612;2023-08-08T03:37:26;99934.94;;;17.58;100.00
11672;BME280;5892;43.412;24.612;2023-08-08T03:39:52;99941.25;;;17.59;100.00
11672;BME280;5892;43.412;24.612;2023-08-08T03:42:21;99879.34;;;17.09;100.00
11672;BME280;5892;43.412;24.612;2023-08-08T03:44:47;99927.59;;;17.47;100.00
11672;BME280;5892;43.412;24.612;2023-08-08T03:47:15;99915.72;;;17.46;100.00
11672;BME280;5892;43.412;24.612;2023-08-08T03:49:43;99933.78;;;17.59;100.00
11672;BME280;5892;43.412;24.612;2023-08-08T03:52:10;99943.47;;;17.50;100.00
11672;BME280;5892;43.412;24.612;2023-08-08T03:54:37;99946.69;;;17.52;100.00
11672;BME280;5892;43.412;24.612;2023-08-08T03:57:04;99949.59;;;17.40;100.00
11672;BME280;5892;43.412;24.612;2023-08-08T03:59:32;99953.16;;;17.40;100.00
11672;BME280;5892;43.412;24.612;2023-08-08T04:01:59;99882.47;;;17.08;100.00
11672;BME280;5892;43.412;24.612;2023-08-08T04:04:26;99962.34;;;17.44;100.00
11672;BME280;5892;43.412;24.612;2023-08-08T04:06:53;99951.28;;;17.44;100.00
11672;BME280;5892;43.412;24.612;2023-08-08T04:09:20;99958.56;;;17.52;100.00
11672;BME280;5892;43.412;24.612;2023-08-08T04:11:48;99966.22;;;17.40;100.00
11672;BME280;5892;43.412;24.612;2023-08-08T04:14:16;99967.97;;;17.48;100.00
11672;BME280;5892;43.412;24.612;2023-08-08T04:16:46;99946.66;;;17.32;100.00
11672;BME280;5892;43.412;24.612;2023-08-08T04:19:16;99923.06;;;17.19;100.00
11672;BME280;5892;43.412;24.612;2023-08-08T04:21:43;99976.72;;;17.50;100.00
11672;BME280;5892;43.412;24.612;2023-08-08T04:24:10;99985.13;;;17.53;100.00
11672;BME280;5892;43.412;24.612;2023-08-08T04:26:38;99984.91;;;17.62;100.00
11672;BME280;5892;43.412;24.612;2023-08-08T04:29:05;99981.84;;;17.67;100.00
11672;BME280;5892;43.412;24.612;2023-08-08T04:31:32;99968.56;;;17.38;100.00
11672;BME280;5892;43.412;24.612;2023-08-08T04:34:01;99977.75;;;17.61;100.00
11672;BME280;5892;43.412;24.612;2023-08-08T04:36:28;99981.84;;;17.67;100.00
11672;BME280;5892;43.412;24.612;2023-08-08T04:38:55;99984.47;;;17.79;100.00
11672;BME280;5892;43.412;24.612;2023-08-08T04:41:22;99954.34;;;17.77;100.00
11672;BME280;5892;43.412;24.612;2023-08-08T04:43:49;99948.28;;;17.72;100.00
11672;BME280;5892;43.412;24.612;2023-08-08T04:46:16;99957.91;;;17.78;100.00
11672;BME280;5892;43.412;24.612;2023-08-08T04:48:43;99965.75;;;17.95;100.00
11672;BME280;5892;43.412;24.612;2023-08-08T04:51:11;99977.28;;;17.97;100.00
11672;BME280;5892;43.412;24.612;2023-08-08T04:53:38;99946.38;;;17.76;100.00
11672;BME280;5892;43.412;24.612;2023-08-08T04:56:05;99983.72;;;17.82;100.00
11672;BME280;5892;43.412;24.612;2023-08-08T04:58:32;99986.56;;;17.86;100.00
11672;BME280;5892;43.412;24.612;2023-08-08T05:00:59;99995.25;;;17.84;100.00
11672;BME280;5892;43.412;24.612;2023-08-08T05:03:25;99993.19;;;17.81;100.00
11672;BME280;5892;43.412;24.612;2023-08-08T05:05:52;99993.19;;;17.81;100.00
11672;BME280;5892;43.412;24.612;2023-08-08T05:08:20;99987.59;;;17.77;100.00
11672;BME280;5892;43.412;24.612;2023-08-08T05:10:47;99998.63;;;17.74;100.00
11672;BME280;5892;43.412;24.612;2023-08-08T05:13:14;100004.28;;;17.81;100.00
11672;BME280;5892;43.412;24.612;2023-08-08T05:15:41;100026.09;;;17.83;100.00
11672;BME280;5892;43.412;24.612;2023-08-08T05:18:08;100030.25;;;17.92;100.00
11672;BME280;5892;43.412;24.612;2023-08-08T05:20:35;100017.13;;;17.70;100.00
11672;BME280;5892;43.412;24.612;2023-08-08T05:23:02;100028.09;;;17.63;100.00
11672;BME280;5892;43.412;24.612;2023-08-08T05:25:31;100054.81;;;17.74;100.00
11672;BME280;5892;43.412;24.612;2023-08-08T05:27:58;100047.72;;;17.73;100.00
11672;BME280;5892;43.412;24.612;2023-08-08T05:30:25;100020.38;;;17.56;100.00
11672;BME280;5892;43.412;24.612;2023-08-08T05:32:51;100057.53;;;17.71;100.00
11672;BME280;5892;43.412;24.612;2023-08-08T05:35:18;100071.63;;;17.82;100.00
11672;BME280;5892;43.412;24.612;2023-08-08T05:37:45;100080.00;;;17.85;100.00
11672;BME280;5892;43.412;24.612;2023-08-08T05:40:12;100066.72;;;17.75;100.00
11672;BME280;5892;43.412;24.612;2023-08-08T05:42:41;100061.34;;;17.82;100.00
11672;BME280;5892;43.412;24.612;2023-08-08T05:45:08;100065.06;;;17.90;100.00
11672;BME280;5892;43.412;24.612;2023-08-08T05:47:35;100076.78;;;18.02;100.00
11672;BME280;5892;43.412;24.612;2023-08-08T05:50:02;100079.81;;;18.16;100.00
11672;BME280;5892;43.412;24.612;2023-08-08T05:52:29;100042.38;;;17.84;100.00
11672;BME280;5892;43.412;24.612;2023-08-08T05:54:56;100064.38;;;17.96;100.00
11672;BME280;5892;43.412;24.612;2023-08-08T05:57:24;100076.44;;;18.27;100.00
11672;BME280;5892;43.412;24.612;2023-08-08T05:59:53;100088.84;;;18.52;100.00
11672;BME280;5892;43.412;24.612;2023-08-08T06:02:20;100089.88;;;18.63;100.00
11672;BME280;5892;43.412;24.612;2023-08-08T06:04:47;100100.28;;;18.70;100.00
11672;BME280;5892;43.412;24.612;2023-08-08T06:07:14;100082.88;;;18.73;100.00
11672;BME280;5892;43.412;24.612;2023-08-08T06:09:41;100074.16;;;18.74;100.00
11672;BME280;5892;43.412;24.612;2023-08-08T06:12:08;100090.00;;;18.96;100.00
11672;BME280;5892;43.412;24.612;2023-08-08T06:14:35;100100.56;;;19.10;100.00
11672;BME280;5892;43.412;24.612;2023-08-08T06:17:04;100100.34;;;19.22;100.00
11672;BME280;5892;43.412;24.612;2023-08-08T06:19:31;100109.97;;;19.28;100.00
11672;BME280;5892;43.412;24.612;2023-08-08T06:21:58;100104.38;;;19.51;100.00
11672;BME280;5892;43.412;24.612;2023-08-08T06:24:25;100098.78;;;19.77;100.00
11672;BME280;5892;43.412;24.612;2023-08-08T06:26:52;100104.66;;;20.02;100.00
11672;BME280;5892;43.412;24.612;2023-08-08T06:29:19;100108.53;;;20.61;100.00
11672;BME280;5892;43.412;24.612;2023-08-08T06:31:47;100110.66;;;21.22;96.83
11672;BME280;5892;43.412;24.612;2023-08-08T06:34:15;100102.91;;;21.52;94.26
11672;BME280;5892;43.412;24.612;2023-08-08T06:36:42;100100.47;;;21.44;94.28
11672;BME280;5892;43.412;24.612;2023-08-08T06:39:12;100107.59;;;21.38;90.74
11672;BME280;5892;43.412;24.612;2023-08-08T06:41:41;100094.97;;;21.54;91.59
11672;BME280;5892;43.412;24.612;2023-08-08T06:44:08;100100.81;;;22.04;89.64
11672;BME280;5892;43.412;24.612;2023-08-08T06:46:35;100094.09;;;22.30;86.75
11672;BME280;5892;43.412;24.612;2023-08-08T06:49:02;100100.97;;;22.64;85.85
11672;BME280;5892;43.412;24.612;2023-08-08T06:51:31;100021.94;;;22.18;82.76
11672;BME280;5892;43.412;24.612;2023-08-08T06:53:58;100102.63;;;22.87;83.53
11672;BME280;5892;43.412;24.612;2023-08-08T06:56:25;100106.63;;;23.00;82.18
11672;BME280;5892;43.412;24.612;2023-08-08T06:58:52;100097.81;;;23.26;81.50
11672;BME280;5892;43.412;24.612;2023-08-08T07:01:19;100104.59;;;23.43;81.65
11672;BME280;5892;43.412;24.612;2023-08-08T07:03:47;100060.66;;;23.43;79.78
11672;BME280;5892;43.412;24.612;2023-08-08T07:06:16;100102.59;;;23.54;74.10
11672;BME280;5892;43.412;24.612;2023-08-08T07:08:44;100109.34;;;23.71;71.65
11672;BME280;5892;43.412;24.612;2023-08-08T07:11:11;100094.63;;;23.06;68.55
11672;BME280;5892;43.412;24.612;2023-08-08T07:13:40;100119.78;;;23.20;66.25
11672;BME280;5892;43.412;24.612;2023-08-08T07:16:07;100120.97;;;23.41;64.49
11672;BME280;5892;43.412;24.612;2023-08-08T07:18:34;100123.34;;;23.42;64.71
11672;BME280;5892;43.412;24.612;2023-08-08T07:21:01;100100.59;;;23.30;64.80
11672;BME280;5892;43.412;24.612;2023-08-08T07:23:27;100126.13;;;23.67;65.06
11672;BME280;5892;43.412;24.612;2023-08-08T07:25:56;100102.88;;;23.91;62.10
11672;BME280;5892;43.412;24.612;2023-08-08T07:28:24;100125.97;;;24.17;63.12
11672;BME280;5892;43.412;24.612;2023-08-08T07:30:51;100114.75;;;24.24;63.75
11672;BME280;5892;43.412;24.612;2023-08-08T07:33:18;100104.09;;;23.90;65.68
11672;BME280;5892;43.412;24.612;2023-08-08T07:35:46;100115.03;;;24.47;64.47
11672;BME280;5892;43.412;24.612;2023-08-08T07:38:13;100119.91;;;24.36;60.84
11672;BME280;5892;43.412;24.612;2023-08-08T07:40:41;100119.16;;;24.25;61.03
11672;BME280;5892;43.412;24.612;2023-08-08T07:43:09;100124.75;;;24.25;61.66
11672;BME280;5892;43.412;24.612;2023-08-08T07:45:36;100114.69;;;24.34;61.07
11672;BME280;5892;43.412;24.612;2023-08-08T07:48:03;100118.72;;;24.30;60.76
11672;BME280;5892;43.412;24.612;2023-08-08T07:50:31;100116.34;;;24.25;60.90
11672;BME280;5892;43.412;24.612;2023-08-08T07:52:57;100110.75;;;24.25;60.39
11672;BME280;5892;43.412;24.612;2023-08-08T07:55:25;100100.75;;;24.27;60.81
11672;BME280;5892;43.412;24.612;2023-08-08T07:57:51;100099.78;;;24.59;61.08
11672;BME280;5892;43.412;24.612;2023-08-08T08:00:20;100071.81;;;24.44;58.56
11672;BME280;5892;43.412;24.612;2023-08-08T08:02:47;100099.84;;;24.48;60.40
11672;BME280;5892;43.412;24.612;2023-08-08T08:05:16;100088.56;;;24.59;59.17
11672;BME280;5892;43.412;24.612;2023-08-08T08:07:43;100100.59;;;24.52;59.61
11672;BME280;5892;43.412;24.612;2023-08-08T08:10:11;100092.63;;;24.47;59.49
11672;BME280;5892;43.412;24.612;2023-08-08T08:12:40;100072.28;;;24.36;58.74
11672;BME280;5892;43.412;24.612;2023-08-08T08:15:08;100110.97;;;24.59;57.75
11672;BME280;5892;43.412;24.612;2023-08-08T08:17:37;100066.31;;;24.30;57.53
11672;BME280;5892;43.412;24.612;2023-08-08T08:20:06;100103.72;;;24.65;56.60
11672;BME280;5892;43.412;24.612;2023-08-08T08:22:36;100098.53;;;24.63;57.23
11672;BME280;5892;43.412;24.612;2023-08-08T08:25:04;100110.16;;;24.58;56.13
11672;BME280;5892;43.412;24.612;2023-08-08T08:27:33;100114.56;;;24.56;55.19
11672;BME280;5892;43.412;24.612;2023-08-08T08:30:01;100112.59;;;24.53;56.19
11672;BME280;5892;43.412;24.612;2023-08-08T08:32:32;100107.50;;;24.37;55.21
11672;BME280;5892;43.412;24.612;2023-08-08T08:35:00;100104.19;;;24.53;57.30
11672;BME280;5892;43.412;24.612;2023-08-08T08:37:28;100110.84;;;24.76;57.99
11672;BME280;5892;43.412;24.612;2023-08-08T08:39:54;100101.63;;;24.79;55.78
11672;BME280;5892;43.412;24.612;2023-08-08T08:42:22;100108.03;;;24.76;55.19
11672;BME280;5892;43.412;24.612;2023-08-08T08:44:49;100115.16;;;24.95;54.86
11672;BME280;5892;43.412;24.612;2023-08-08T08:47:19;100101.19;;;24.88;55.57
11672;BME280;5892;43.412;24.612;2023-08-08T08:49:46;100111.19;;;24.85;56.05
11672;BME280;5892;43.412;24.612;2023-08-08T08:52:15;100090.78;;;24.85;54.67
11672;BME280;5892;43.412;24.612;2023-08-08T08:54:42;100110.75;;;24.94;53.45
11672;BME280;5892;43.412;24.612;2023-08-08T08:57:09;100104.88;;;24.74;54.57
11672;BME280;5892;43.412;24.612;2023-08-08T08:59:36;100103.59;;;24.86;53.34
11672;BME280;5892;43.412;24.612;2023-08-08T09:02:03;100105.19;;;24.91;53.28
11672;BME280;5892;43.412;24.612;2023-08-08T09:04:30;100077.34;;;24.55;53.32
11672;BME280;5892;43.412;24.612;2023-08-08T09:06:58;100103.59;;;24.82;53.88
11672;BME280;5892;43.412;24.612;2023-08-08T09:09:31;100105.75;;;25.16;53.11
11672;BME280;5892;43.412;24.612;2023-08-08T09:12:07;100106.13;;;25.18;52.77
11672;BME280;5892;43.412;24.612;2023-08-08T09:14:34;100087.72;;;25.17;52.73
11672;BME280;5892;43.412;24.612;2023-08-08T09:17:10;100105.50;;;25.41;52.91
11672;BME280;5892;43.412;24.612;2023-08-08T09:19:42;100103.31;;;25.62;52.24
11672;BME280;5892;43.412;24.612;2023-08-08T09:22:09;100098.06;;;25.68;50.22
11672;BME280;5892;43.412;24.612;2023-08-08T09:24:40;100095.47;;;25.84;49.16
11672;BME280;5892;43.412;24.612;2023-08-08T09:27:07;100101.34;;;25.59;50.75
11672;BME280;5892;43.412;24.612;2023-08-08T09:29:35;100099.13;;;25.78;48.80
11672;BME280;5892;43.412;24.612;2023-08-08T09:32:03;100093.44;;;25.47;49.76
11672;BME280;5892;43.412;24.612;2023-08-08T09:34:30;100093.19;;;25.31;50.57
11672;BME280;5892;43.412;24.612;2023-08-08T09:36:57;100088.69;;;25.41;51.65
11672;BME280;5892;43.412;24.612;2023-08-08T09:39:26;100096.06;;;25.65;51.63
11672;BME280;5892;43.412;24.612;2023-08-08T09:41:56;100097.50;;;25.39;49.38
11672;BME280;5892;43.412;24.612;2023-08-08T09:44:23;100101.44;;;25.49;50.88
11672;BME280;5892;43.412;24.612;2023-08-08T09:46:51;100088.38;;;25.31;51.77
11672;BME280;5892;43.412;24.612;2023-08-08T09:49:19;100089.13;;;24.95;51.54
11672;BME280;5892;43.412;24.612;2023-08-08T09:51:49;100090.53;;;25.13;51.53
11672;BME280;5892;43.412;24.612;2023-08-08T09:54:16;100092.00;;;25.32;51.49
11672;BME280;5892;43.412;24.612;2023-08-08T09:56:43;100087.38;;;25.52;50.66
11672;BME280;5892;43.412;24.612;2023-08-08T09:59:12;100079.41;;;25.85;50.25
11672;BME280;5892;43.412;24.612;2023-08-08T10:01:40;100055.81;;;26.09;48.05
11672;BME280;5892;43.412;24.612;2023-08-08T10:04:08;100081.38;;;26.18;47.47
11672;BME280;5892;43.412;24.612;2023-08-08T10:06:35;100075.81;;;26.14;48.63
11672;BME280;5892;43.412;24.612;2023-08-08T10:09:02;100081.75;;;25.90;49.34
11672;BME280;5892;43.412;24.612;2023-08-08T10:11:30;100085.22;;;25.67;49.07
11672;BME280;5892;43.412;24.612;2023-08-08T10:14:01;100076.47;;;25.61;49.00
11672;BME280;5892;43.412;24.612;2023-08-08T10:16:31;100081.38;;;25.50;48.43
11672;BME280;5892;43.412;24.612;2023-08-08T10:19:00;100088.97;;;25.50;48.91
11672;BME280;5892;43.412;24.612;2023-08-08T10:21:32;100086.56;;;25.52;49.53
11672;BME280;5892;43.412;24.612;2023-08-08T10:24:04;100078.28;;;25.79;49.25
11672;BME280;5892;43.412;24.612;2023-08-08T10:26:31;100078.09;;;25.93;49.73
11672;BME280;5892;43.412;24.612;2023-08-08T10:28:59;100078.63;;;25.81;48.32
11672;BME280;5892;43.412;24.612;2023-08-08T10:31:33;100079.69;;;25.94;48.45
11672;BME280;5892;43.412;24.612;2023-08-08T10:34:03;100077.75;;;25.91;48.35
11672;BME280;5892;43.412;24.612;2023-08-08T10:36:51;100078.19;;;25.86;48.10
11672;BME280;5892;43.412;24.612;2023-08-08T10:39:20;100063.66;;;25.94;47.39
11672;BME280;5892;43.412;24.612;2023-08-08T10:41:48;100064.00;;;25.96;47.67
11672;BME280;5892;43.412;24.612;2023-08-08T10:44:24;100054.94;;;25.85;47.68
11672;BME280;5892;43.412;24.612;2023-08-08T10:46:52;100053.03;;;25.79;46.91
11672;BME280;5892;43.412;24.612;2023-08-08T10:49:22;100053.97;;;25.65;46.49
11672;BME280;5892;43.412;24.612;2023-08-08T10:51:50;100054.63;;;25.76;47.88
11672;BME280;5892;43.412;24.612;2023-08-08T10:54:19;100048.66;;;26.04;47.88
11672;BME280;5892;43.412;24.612;2023-08-08T10:56:51;100038.97;;;26.39;48.13
11672;BME280;5892;43.412;24.612;2023-08-08T10:59:19;100039.03;;;26.63;46.08
11672;BME280;5892;43.412;24.612;2023-08-08T11:01:49;100049.41;;;26.66;46.59
11672;BME280;5892;43.412;24.612;2023-08-08T11:04:18;100046.19;;;26.40;47.18
11672;BME280;5892;43.412;24.612;2023-08-08T11:06:46;100052.63;;;26.07;45.63
11672;BME280;5892;43.412;24.612;2023-08-08T11:09:15;100057.09;;;25.74;47.21
11672;BME280;5892;43.412;24.612;2023-08-08T11:11:44;100038.88;;;25.52;45.70
11672;BME280;5892;43.412;24.612;2023-08-08T11:14:13;100059.31;;;25.90;45.36
11672;BME280;5892;43.412;24.612;2023-08-08T11:16:40;100052.47;;;25.91;46.49
11672;BME280;5892;43.412;24.612;2023-08-08T11:19:07;100063.28;;;25.55;45.83
11672;BME280;5892;43.412;24.612;2023-08-08T11:21:34;100056.06;;;25.57;46.01
11672;BME280;5892;43.412;24.612;2023-08-08T11:24:07;100024.16;;;25.78;45.47
11672;BME280;5892;43.412;24.612;2023-08-08T11:26:34;100039.53;;;25.66;45.92
11672;BME280;5892;43.412;24.612;2023-08-08T11:29:02;100057.91;;;25.71;46.89
11672;BME280;5892;43.412;24.612;2023-08-08T11:31:30;100055.50;;;25.73;46.35
11672;BME280;5892;43.412;24.612;2023-08-08T11:33:58;100060.91;;;25.87;47.54
11672;BME280;5892;43.412;24.612;2023-08-08T11:36:26;100055.50;;;25.73;46.66
11672;BME280;5892;43.412;24.612;2023-08-08T11:38:56;100056.06;;;25.91;47.71
11672;BME280;5892;43.412;24.612;2023-08-08T11:41:25;100056.78;;;26.29;47.14
11672;BME280;5892;43.412;24.612;2023-08-08T11:43:53;100057.78;;;26.12;47.45
11672;BME280;5892;43.412;24.612;2023-08-08T11:46:23;100052.63;;;26.07;45.98
11672;BME280;5892;43.412;24.612;2023-08-08T11:48:50;100050.88;;;26.20;45.49
11672;BME280;5892;43.412;24.612;2023-08-08T11:51:17;100053.81;;;26.09;46.05
11672;BME280;5892;43.412;24.612;2023-08-08T11:53:51;100047.13;;;25.69;46.09
11672;BME280;5892;43.412;24.612;2023-08-08T11:56:19;100054.88;;;25.58;46.47
11672;BME280;5892;43.412;24.612;2023-08-08T11:58:49;100044.78;;;25.64;46.13
11672;BME280;5892;43.412;24.612;2023-08-08T12:01:19;100032.84;;;25.87;46.72
11672;BME280;5892;43.412;24.612;2023-08-08T12:03:48;100045.34;;;26.13;46.87
11672;BME280;5892;43.412;24.612;2023-08-08T12:06:15;100038.25;;;26.05;46.00
11672;BME280;5892;43.412;24.612;2023-08-08T12:08:43;100037.38;;;26.38;45.67
11672;BME280;5892;43.412;24.612;2023-08-08T12:11:11;100043.13;;;26.01;44.37
11672;BME280;5892;43.412;24.612;2023-08-08T12:13:39;100036.78;;;25.93;45.33
11672;BME280;5892;43.412;24.612;2023-08-08T12:16:09;100045.13;;;26.00;44.67
11672;BME280;5892;43.412;24.612;2023-08-08T12:18:37;100025.41;;;26.04;44.81
11672;BME280;5892;43.412;24.612;2023-08-08T12:21:04;100009.59;;;25.87;43.76
11672;BME280;5892;43.412;24.612;2023-08-08T12:23:32;100022.69;;;25.97;45.45
11672;BME280;5892;43.412;24.612;2023-08-08T12:26:00;100035.19;;;25.92;44.58
11672;BME280;5892;43.412;24.612;2023-08-08T12:28:29;100044.50;;;25.86;45.00
11672;BME280;5892;43.412;24.612;2023-08-08T12:30:55;100035.78;;;26.07;44.04
11672;BME280;5892;43.412;24.612;2023-08-08T12:33:24;100037.50;;;26.01;43.82
11672;BME280;5892;43.412;24.612;2023-08-08T12:35:50;100042.41;;;25.93;43.38
11672;BME280;5892;43.412;24.612;2023-08-08T12:38:18;100036.06;;;25.86;44.00
11672;BME280;5892;43.412;24.612;2023-08-08T12:40:45;100040.66;;;26.03;43.59
11672;BME280;5892;43.412;24.612;2023-08-08T12:43:12;100043.38;;;26.40;43.51
11672;BME280;5892;43.412;24.612;2023-08-08T12:45:42;100032.78;;;25.94;42.70
11672;BME280;5892;43.412;24.612;2023-08-08T12:48:09;100039.94;;;26.29;43.17
11672;BME280;5892;43.412;24.612;2023-08-08T12:50:38;100028.19;;;26.38;42.90